createdAt,value
2023-04-04T00:01:12.787Z,5.50
2023-04-04T00:03:41.309Z,6.45
2023-04-04T00:06:10.019Z,6.47
2023-04-04T00:08:38.509Z,5.95
2023-04-04T00:11:08.254Z,6.55
2023-04-04T00:13:36.732Z,6.30
2023-04-04T00:16:05.432Z,6.78
2023-04-04T00:18:34.233Z,6.45
2023-04-04T00:21:02.681Z,6.93
2023-04-04T00:23:31.174Z,7.03
2023-04-04T00:25:59.448Z,6.22
2023-04-04T00:28:29.166Z,7.55
2023-04-04T00:30:57.654Z,6.73
2023-04-04T00:33:26.048Z,6.63
2023-04-04T00:35:54.787Z,6.82
2023-04-04T00:38:23.165Z,7.45
2023-04-04T00:40:52.627Z,7.07
2023-04-04T00:43:21.132Z,7.20
2023-04-04T00:45:51.642Z,7.72
2023-04-04T00:48:21.653Z,7.28
2023-04-04T00:50:50.120Z,7.50
2023-04-04T00:53:18.751Z,6.70
2023-04-04T00:55:47.132Z,7.57
2023-04-04T00:58:15.507Z,7.28
2023-04-04T01:00:44.050Z,7.43
2023-04-04T01:03:14.257Z,7.03
2023-04-04T01:05:43.226Z,7.40
2023-04-04T01:08:11.808Z,7.50
2023-04-04T01:10:41.161Z,7.10
2023-04-04T01:13:10.811Z,7.80
2023-04-04T01:15:39.435Z,7.20
2023-04-04T01:18:09.447Z,7.40
2023-04-04T01:20:52.497Z,7.03
2023-04-04T01:23:25.854Z,7.78
2023-04-04T01:26:03.854Z,8.10
2023-04-04T01:28:33.907Z,8.67
2023-04-04T01:31:07.405Z,7.95
2023-04-04T01:33:42.191Z,7.72
2023-04-04T01:36:19.523Z,7.70
2023-04-04T01:38:56.602Z,7.63
2023-04-04T01:41:27.446Z,7.72
2023-04-04T01:43:59.123Z,7.72
2023-04-04T01:46:28.349Z,8.10
2023-04-04T01:48:57.065Z,7.97
2023-04-04T01:51:31.960Z,7.30
2023-04-04T01:54:00.478Z,8.02
2023-04-04T01:56:30.749Z,8.00
2023-04-04T01:58:59.402Z,8.43
2023-04-04T02:01:27.727Z,7.57
2023-04-04T02:03:56.286Z,7.55
2023-04-04T02:06:24.595Z,7.75
2023-04-04T02:08:53.772Z,7.40
2023-04-04T02:11:23.070Z,7.43
2023-04-04T02:13:53.354Z,7.40
2023-04-04T02:16:22.262Z,7.90
2023-04-04T02:18:50.670Z,7.72
2023-04-04T02:21:19.098Z,8.32
2023-04-04T02:23:48.567Z,7.80
2023-04-04T02:26:16.929Z,8.43
2023-04-04T02:28:45.233Z,7.72
2023-04-04T02:31:15.019Z,8.10
2023-04-04T02:33:43.398Z,7.93
2023-04-04T02:36:12.935Z,8.00
2023-04-04T02:38:42.021Z,7.60
2023-04-04T02:41:10.564Z,7.65
2023-04-04T02:43:38.969Z,8.40
2023-04-04T02:46:20.460Z,8.35
2023-04-04T02:48:53.160Z,7.72
2023-04-04T02:51:21.600Z,7.63
2023-04-04T02:53:50.026Z,9.05
2023-04-04T02:56:26.624Z,8.75
2023-04-04T02:58:55.596Z,8.23
2023-04-04T03:01:24.256Z,8.43
2023-04-04T03:03:54.050Z,8.35
2023-04-04T03:06:23.762Z,8.15
2023-04-04T03:08:52.139Z,8.82
2023-04-04T03:11:21.515Z,7.85
2023-04-04T03:13:52.365Z,7.68
2023-04-04T03:16:27.091Z,8.40
2023-04-04T03:18:57.245Z,7.88
2023-04-04T03:21:25.933Z,8.07
2023-04-04T03:23:57.980Z,8.55
2023-04-04T03:26:28.239Z,8.02
2023-04-04T03:28:56.911Z,8.40
2023-04-04T03:31:26.822Z,7.60
2023-04-04T03:33:56.560Z,8.18
2023-04-04T03:36:24.978Z,9.50
2023-04-04T03:38:53.402Z,8.63
2023-04-04T03:41:21.671Z,8.20
2023-04-04T03:43:50.372Z,8.85
2023-04-04T03:46:19.401Z,8.68
2023-04-04T03:48:48.403Z,8.45
2023-04-04T03:51:24.851Z,8.57
2023-04-04T03:53:53.175Z,8.52
2023-04-04T03:56:21.563Z,8.25
2023-04-04T03:58:50.009Z,7.90
2023-04-04T04:01:21.717Z,8.57
2023-04-04T04:03:50.201Z,8.50
2023-04-04T04:06:20.947Z,8.52
2023-04-04T04:08:50.084Z,8.63
2023-04-04T04:11:18.394Z,8.32
2023-04-04T04:13:46.743Z,9.50
2023-04-04T04:16:15.612Z,8.32
2023-04-04T04:18:43.998Z,8.55
2023-04-04T04:21:17.091Z,8.27
2023-04-04T04:23:46.801Z,8.57
2023-04-04T04:26:15.096Z,8.73
2023-04-04T04:28:43.486Z,9.05
2023-04-04T04:31:16.817Z,9.07
2023-04-04T04:33:49.692Z,9.05
2023-04-04T04:36:21.173Z,9.93
2023-04-04T04:38:57.448Z,8.88
2023-04-04T04:41:29.853Z,9.10
2023-04-04T04:43:58.342Z,9.52
2023-04-04T04:46:28.293Z,8.73
2023-04-04T04:48:56.970Z,9.27
2023-04-04T04:51:29.897Z,8.98
2023-04-04T04:54:01.408Z,9.60
2023-04-04T04:56:30.505Z,9.40
2023-04-04T04:59:08.975Z,9.57
2023-04-04T05:01:39.613Z,9.35
2023-04-04T05:04:08.065Z,9.55
2023-04-04T05:06:54.839Z,9.88
2023-04-04T05:09:25.090Z,9.63
2023-04-04T05:11:53.639Z,9.85
2023-04-04T05:14:26.869Z,9.55
2023-04-04T05:16:58.535Z,9.23
2023-04-04T05:19:31.141Z,9.90
2023-04-04T05:22:00.325Z,9.70
2023-04-04T05:24:38.675Z,10.13
2023-04-04T05:27:08.356Z,9.68
2023-04-04T05:29:42.997Z,9.95
2023-04-04T05:32:11.806Z,9.85
2023-04-04T05:34:42.476Z,9.82
2023-04-04T05:37:15.092Z,10.18
2023-04-04T05:39:49.290Z,10.68
2023-04-04T05:42:19.107Z,10.27
2023-04-04T05:44:51.883Z,9.82
2023-04-04T05:47:22.057Z,10.02
2023-04-04T05:52:20.618Z,10.35
2023-04-04T05:54:51.343Z,10.00
2023-04-04T05:57:26.889Z,9.15
2023-04-04T05:59:58.624Z,9.43
2023-04-04T06:02:27.846Z,9.40
2023-04-04T06:05:01.014Z,9.10
2023-04-04T06:07:33.684Z,9.63
2023-04-04T06:10:03.597Z,9.30
2023-04-04T06:12:34.010Z,9.18
2023-04-04T06:15:04.842Z,8.48
2023-04-04T06:17:33.552Z,8.95
2023-04-04T06:20:01.904Z,8.73
2023-04-04T06:22:30.369Z,8.93
2023-04-04T06:24:58.709Z,8.98
2023-04-04T06:27:30.010Z,9.48
2023-04-04T06:30:00.360Z,8.43
2023-04-04T06:32:29.179Z,8.75
2023-04-04T06:34:57.485Z,8.30
2023-04-04T06:37:39.094Z,8.05
2023-04-04T06:40:15.758Z,8.10
2023-04-04T06:42:52.231Z,8.63
2023-04-04T06:45:23.624Z,8.23
2023-04-04T06:47:53.555Z,8.25
2023-04-04T06:50:23.349Z,8.73
2023-04-04T06:52:52.677Z,8.70
2023-04-04T06:55:21.299Z,8.63
2023-04-04T06:57:51.545Z,8.27
2023-04-04T07:00:21.230Z,8.63
2023-04-04T07:02:50.474Z,8.37
2023-04-04T07:05:19.011Z,8.32
2023-04-04T07:07:47.756Z,8.05
2023-04-04T07:10:16.234Z,8.13
2023-04-04T07:12:45.398Z,8.50
2023-04-04T07:15:15.561Z,8.48
2023-04-04T07:17:44.234Z,8.40
2023-04-04T07:20:13.451Z,9.05
2023-04-04T07:22:42.639Z,8.98
2023-04-04T07:25:12.278Z,8.35
2023-04-04T07:27:41.758Z,8.48
2023-04-04T07:30:11.796Z,8.15
2023-04-04T07:32:41.609Z,8.55
2023-04-04T07:35:10.897Z,8.45
2023-04-04T07:37:39.465Z,8.65
2023-04-04T07:40:09.704Z,8.65
2023-04-04T07:42:38.072Z,8.95
2023-04-04T07:45:07.453Z,8.27
2023-04-04T07:47:36.060Z,7.95
2023-04-04T07:50:07.867Z,8.20
2023-04-04T07:52:36.250Z,8.57
2023-04-04T07:55:07.238Z,7.95
2023-04-04T07:57:39.036Z,7.32
2023-04-04T08:00:10.132Z,8.10
2023-04-04T08:02:41.970Z,8.45
2023-04-04T08:05:12.219Z,8.48
2023-04-04T08:07:40.811Z,7.40
2023-04-04T08:10:11.264Z,7.15
2023-04-04T08:12:40.354Z,7.68
2023-04-04T08:15:09.940Z,7.40
2023-04-04T08:17:38.689Z,8.32
2023-04-04T08:20:08.611Z,6.72
2023-04-04T08:22:38.470Z,6.72
2023-04-04T08:25:07.513Z,6.47
2023-04-04T08:27:35.907Z,6.70
2023-04-04T08:30:05.797Z,6.45
2023-04-04T08:32:34.161Z,5.85
2023-04-04T08:35:02.588Z,6.10
2023-04-04T08:37:31.169Z,5.80
2023-04-04T08:40:04.924Z,6.40
2023-04-04T08:42:36.182Z,6.53
2023-04-04T08:45:05.991Z,6.10
2023-04-04T08:47:36.786Z,6.03
2023-04-04T08:50:08.438Z,5.57
2023-04-04T08:52:38.179Z,5.65
2023-04-04T08:55:09.956Z,6.03
2023-04-04T08:57:38.353Z,6.15
2023-04-04T09:00:09.277Z,6.60
2023-04-04T09:02:48.365Z,6.25
2023-04-04T09:05:17.664Z,5.43
2023-04-04T09:07:46.523Z,6.22
2023-04-04T09:10:16.303Z,5.85
2023-04-04T09:12:48.539Z,5.97
2023-04-04T09:15:17.394Z,6.07
2023-04-04T09:17:45.790Z,6.20
2023-04-04T09:20:42.801Z,6.13
2023-04-04T09:23:13.800Z,5.78
2023-04-04T09:28:22.110Z,6.22
2023-04-04T09:30:51.615Z,6.32
2023-04-04T09:33:22.137Z,6.03
2023-04-04T09:35:53.511Z,6.40
2023-04-04T09:38:23.505Z,6.45
2023-04-04T09:40:53.958Z,6.00
2023-04-04T09:43:24.343Z,6.20
2023-04-04T09:45:55.188Z,6.65
2023-04-04T09:48:34.636Z,6.60
2023-04-04T09:51:07.345Z,6.20
2023-04-04T09:53:38.129Z,7.15
2023-04-04T09:56:09.122Z,6.90
2023-04-04T09:58:46.333Z,6.63
2023-04-04T10:01:21.007Z,6.97
2023-04-04T10:03:54.200Z,6.90
2023-04-04T10:06:25.110Z,6.93
2023-04-04T10:08:53.697Z,6.88
2023-04-04T10:11:33.530Z,6.88
2023-04-04T10:14:03.874Z,6.80
2023-04-04T10:16:34.774Z,6.80
2023-04-04T10:21:32.618Z,7.00
2023-04-04T10:24:03.145Z,7.30
2023-04-04T10:26:32.872Z,6.25
2023-04-04T10:29:01.260Z,6.78
2023-04-04T10:31:32.349Z,6.60
2023-04-04T10:34:12.566Z,6.78
2023-04-04T10:36:47.188Z,6.38
2023-04-04T10:39:24.445Z,6.75
2023-04-04T10:41:54.761Z,7.15
2023-04-04T10:44:31.574Z,7.50
2023-04-04T10:47:07.706Z,6.60
2023-04-04T10:49:37.259Z,6.90
2023-04-04T10:52:05.836Z,6.72
2023-04-04T10:54:34.712Z,7.60
2023-04-04T10:57:04.634Z,6.57
2023-04-04T10:59:33.101Z,7.07
2023-04-04T11:02:03.329Z,7.32
2023-04-04T11:04:37.797Z,7.22
2023-04-04T11:07:18.237Z,7.28
2023-04-04T11:10:14.561Z,7.35
2023-04-04T11:12:47.647Z,7.82
2023-04-04T11:15:16.447Z,7.45
2023-04-04T11:18:00.547Z,7.30
2023-04-04T11:20:35.590Z,7.10
2023-04-04T11:23:11.376Z,7.55
2023-04-04T11:25:42.311Z,6.30
2023-04-04T11:28:15.997Z,6.68
2023-04-04T11:30:48.952Z,6.78
2023-04-04T11:33:32.185Z,6.85
2023-04-04T11:36:08.234Z,6.88
2023-04-04T11:38:41.178Z,6.90
2023-04-04T11:41:10.739Z,7.80
2023-04-04T11:43:46.676Z,7.53
2023-04-04T11:46:19.738Z,7.30
2023-04-04T11:48:49.462Z,7.95
2023-04-04T11:51:19.841Z,8.07
2023-04-04T11:53:49.136Z,7.88
2023-04-04T11:56:17.617Z,7.63
2023-04-04T11:58:56.015Z,7.68
2023-04-04T12:01:27.158Z,8.18
2023-04-04T12:03:55.537Z,7.43
2023-04-04T12:06:23.933Z,7.90
2023-04-04T12:08:52.234Z,7.47
2023-04-04T12:11:22.836Z,7.88
2023-04-04T12:13:53.644Z,7.05
2023-04-04T12:16:22.124Z,8.02
2023-04-04T12:18:51.004Z,8.15
2023-04-04T12:21:19.985Z,7.50
2023-04-04T12:23:49.553Z,7.70
2023-04-04T12:26:19.036Z,7.95
2023-04-04T12:28:48.039Z,7.82
2023-04-04T12:31:18.220Z,8.15
2023-04-04T12:33:46.569Z,7.45
2023-04-04T12:36:15.243Z,7.70
2023-04-04T12:38:59.298Z,7.50
2023-04-04T12:41:27.973Z,7.82
2023-04-04T12:44:03.887Z,8.60
2023-04-04T12:46:39.915Z,8.50
2023-04-04T12:49:09.525Z,8.32
2023-04-04T12:51:39.511Z,7.68
2023-04-04T12:54:08.533Z,8.40
2023-04-04T12:56:41.849Z,8.07
2023-04-04T12:59:11.679Z,7.65
2023-04-04T13:01:42.444Z,7.63
2023-04-04T13:06:39.475Z,7.63
2023-04-04T13:09:08.701Z,8.15
2023-04-04T13:11:58.804Z,7.78
2023-04-04T13:14:27.912Z,7.43
2023-04-04T13:17:09.453Z,8.13
2023-04-04T13:19:37.934Z,8.18
2023-04-04T13:22:10.704Z,8.20
2023-04-04T13:24:39.937Z,8.20
2023-04-04T13:27:09.390Z,8.55
2023-04-04T13:29:37.654Z,8.02
2023-04-04T13:32:07.455Z,8.20
2023-04-04T13:34:36.164Z,7.83
2023-04-04T13:37:04.707Z,8.52
2023-04-04T13:39:33.163Z,8.15
2023-04-04T13:42:02.111Z,8.52
2023-04-04T13:44:30.543Z,7.93
2023-04-04T13:46:59.224Z,7.90
2023-04-04T13:49:28.972Z,7.20
2023-04-04T13:51:57.336Z,8.35
2023-04-04T13:54:25.647Z,8.32
2023-04-04T13:56:54.764Z,7.70
2023-04-04T13:59:24.107Z,8.32
2023-04-04T14:01:52.608Z,8.98
2023-04-04T14:04:24.096Z,8.25
2023-04-04T14:06:54.124Z,8.07
2023-04-04T14:09:22.407Z,7.90
2023-04-04T14:11:50.910Z,9.07
2023-04-04T14:14:19.200Z,8.55
2023-04-04T14:16:47.566Z,8.38
2023-04-04T14:19:16.366Z,8.82
2023-04-04T14:21:44.702Z,6.78
2023-04-04T14:24:17.912Z,8.05
2023-04-04T14:26:47.124Z,7.32
2023-04-04T14:29:16.010Z,7.43
2023-04-04T14:31:44.484Z,7.00
2023-04-04T14:34:12.829Z,6.82
2023-04-04T14:36:41.550Z,7.57
2023-04-04T14:39:09.997Z,8.18
2023-04-04T14:41:39.948Z,7.75
2023-04-04T14:44:08.706Z,7.90
2023-04-04T14:46:37.087Z,8.63
2023-04-04T14:49:06.468Z,7.80
2023-04-04T14:51:35.681Z,8.57
2023-04-04T14:54:04.052Z,8.02
2023-04-04T14:56:32.484Z,8.45
2023-04-04T14:59:05.397Z,7.93
2023-04-04T15:01:33.858Z,7.30
2023-04-04T15:04:03.764Z,7.68
2023-04-04T15:06:36.091Z,7.78
2023-04-04T15:09:06.029Z,7.82
2023-04-04T15:11:35.381Z,8.15
2023-04-04T15:14:06.587Z,8.30
2023-04-04T15:16:36.132Z,8.18
2023-04-04T15:19:04.468Z,7.65
2023-04-04T15:21:32.832Z,7.80
2023-04-04T15:24:01.189Z,7.20
2023-04-04T15:26:29.594Z,7.53
2023-04-04T15:28:57.895Z,6.90
2023-04-04T15:31:28.161Z,7.82
2023-04-04T15:33:59.210Z,7.75
2023-04-04T15:36:28.822Z,7.00
2023-04-04T15:38:57.478Z,7.57
2023-04-04T15:41:25.847Z,8.63
2023-04-04T15:43:54.168Z,8.27
2023-04-04T15:46:22.504Z,7.68
2023-04-04T15:48:53.036Z,7.90
2023-04-04T15:51:22.186Z,7.65
2023-04-04T15:53:51.062Z,8.25
2023-04-04T15:56:19.391Z,7.97
2023-04-04T15:58:47.758Z,7.90
2023-04-04T16:01:16.214Z,8.00
2023-04-04T16:03:44.961Z,8.60
2023-04-04T16:06:14.874Z,7.88
2023-04-04T16:08:44.484Z,8.77
2023-04-04T16:11:13.388Z,8.85
2023-04-04T16:13:41.686Z,8.60
2023-04-04T16:16:10.057Z,8.00
2023-04-04T16:18:38.428Z,8.52
2023-04-04T16:21:07.033Z,8.68
2023-04-04T16:23:37.126Z,9.38
2023-04-04T16:26:05.753Z,9.25
2023-04-04T16:28:37.483Z,8.45
2023-04-04T16:31:07.941Z,8.45
2023-04-04T16:33:36.377Z,8.45
2023-04-04T16:36:05.013Z,8.38
2023-04-04T16:38:33.382Z,8.50
2023-04-04T16:41:03.513Z,9.07
2023-04-04T16:43:31.897Z,8.00
2023-04-04T16:46:00.348Z,9.60
2023-04-04T16:48:28.702Z,9.35
2023-04-04T16:50:57.769Z,8.63
2023-04-04T16:53:26.102Z,8.68
2023-04-04T16:55:54.859Z,8.80
2023-04-04T16:58:24.786Z,9.32
2023-04-04T17:00:53.075Z,9.18
2023-04-04T17:03:21.467Z,8.77
2023-04-04T17:05:49.767Z,9.00
2023-04-04T17:08:18.186Z,9.25
2023-04-04T17:10:46.527Z,9.05
2023-04-04T17:13:15.273Z,8.82
2023-04-04T17:15:48.512Z,9.00
2023-04-04T17:18:17.063Z,9.43
2023-04-04T17:20:47.775Z,9.23
2023-04-04T17:23:17.009Z,9.63
2023-04-04T17:25:45.540Z,9.25
2023-04-04T17:28:13.983Z,9.43
2023-04-04T17:30:42.596Z,9.55
2023-04-04T17:33:12.626Z,9.07
2023-04-04T17:35:41.306Z,10.10
2023-04-04T17:38:09.680Z,9.43
2023-04-04T17:40:40.710Z,9.63
2023-04-04T17:43:09.539Z,9.02
2023-04-04T17:45:38.986Z,10.02
2023-04-04T17:48:07.354Z,9.35
2023-04-04T17:50:37.087Z,10.35
2023-04-04T17:53:07.215Z,9.48
2023-04-04T17:55:36.737Z,9.88
2023-04-04T17:58:05.108Z,10.35
2023-04-04T18:00:33.579Z,10.40
2023-04-04T18:03:02.057Z,10.32
2023-04-04T18:05:31.247Z,9.30
2023-04-04T18:08:04.740Z,10.95
2023-04-04T18:10:33.225Z,10.25
2023-04-04T18:13:01.640Z,11.13
2023-04-04T18:15:30.521Z,11.07
2023-04-04T18:17:58.950Z,11.90
2023-04-04T18:20:34.620Z,10.65
2023-04-04T18:23:06.022Z,11.60
2023-04-04T18:25:34.778Z,11.55
2023-04-04T18:28:03.116Z,11.05
2023-04-04T18:30:31.854Z,11.02
2023-04-04T18:33:00.247Z,10.50
2023-04-04T18:35:28.843Z,11.07
2023-04-04T18:37:57.266Z,11.07
2023-04-04T18:40:27.088Z,10.70
2023-04-04T18:42:55.632Z,10.93
2023-04-04T18:45:33.589Z,11.05
2023-04-04T18:48:08.350Z,11.05
2023-04-04T18:50:37.077Z,11.38
2023-04-04T18:53:05.487Z,11.25
2023-04-04T18:55:35.136Z,11.38
2023-04-04T18:58:03.434Z,10.85
2023-04-04T19:00:31.975Z,11.25
2023-04-04T19:03:00.644Z,10.77
2023-04-04T19:05:34.081Z,10.75
2023-04-04T19:08:04.408Z,11.10
2023-04-04T19:10:35.268Z,11.38
2023-04-04T19:13:03.608Z,11.80
2023-04-04T19:15:31.921Z,11.18
2023-04-04T19:18:00.410Z,11.32
2023-04-04T19:20:28.935Z,10.98
2023-04-04T19:22:57.246Z,12.00
2023-04-04T19:25:25.646Z,12.18
2023-04-04T19:27:55.545Z,12.52
2023-04-04T19:30:47.308Z,12.23
2023-04-04T19:33:17.862Z,12.48
2023-04-04T19:35:53.694Z,12.73
2023-04-04T19:38:25.928Z,12.48
2023-04-04T19:40:58.722Z,13.15
2023-04-04T19:43:30.345Z,13.05
2023-04-04T19:46:01.191Z,13.57
2023-04-04T19:48:44.726Z,12.73
2023-04-04T19:51:42.599Z,14.02
2023-04-04T19:54:15.948Z,13.88
2023-04-04T19:56:47.665Z,13.65
2023-04-04T20:00:01.486Z,13.80
2023-04-04T20:02:54.565Z,13.70
2023-04-04T20:06:06.450Z,14.88
2023-04-04T20:08:41.191Z,13.48
2023-04-04T20:11:09.730Z,13.68
2023-04-04T20:13:39.124Z,15.13
2023-04-04T20:16:13.824Z,14.02
2023-04-04T20:18:44.759Z,14.40
2023-04-04T20:21:16.643Z,14.65
2023-04-04T20:23:48.493Z,14.02
2023-04-04T20:26:51.000Z,15.30
2023-04-04T20:29:22.679Z,15.07
2023-04-04T20:31:55.442Z,15.75
2023-04-04T20:34:36.422Z,16.23
2023-04-04T20:37:09.726Z,15.27
2023-04-04T20:39:48.565Z,15.95
2023-04-04T20:42:40.042Z,16.50
2023-04-04T20:45:46.556Z,16.35
2023-04-04T20:48:37.874Z,16.17
2023-04-04T20:51:24.661Z,16.30
2023-04-04T20:53:53.917Z,16.67
2023-04-04T20:56:46.555Z,17.10
2023-04-04T20:59:43.332Z,16.60
2023-04-04T21:02:19.793Z,16.23
2023-04-04T21:04:52.124Z,16.58
2023-04-04T21:07:39.929Z,17.08
2023-04-04T21:10:24.919Z,17.25
2023-04-04T21:12:53.432Z,17.67
2023-04-04T21:15:24.526Z,16.08
2023-04-04T21:17:53.178Z,16.45
2023-04-04T21:21:16.631Z,16.63
2023-04-04T21:23:56.797Z,16.02
2023-04-04T21:26:34.424Z,16.20
2023-04-04T21:29:05.790Z,16.23
2023-04-04T21:31:39.800Z,15.27
2023-04-04T21:34:15.150Z,17.30
2023-04-04T21:36:46.197Z,15.70
2023-04-04T21:39:16.697Z,15.45
2023-04-04T21:41:45.937Z,15.30
2023-04-04T21:44:15.633Z,15.20
2023-04-04T21:46:44.240Z,14.40
2023-04-04T21:49:13.134Z,14.68
2023-04-04T21:51:42.327Z,14.48
2023-04-04T21:54:12.223Z,14.98
2023-04-04T21:56:40.722Z,15.27
2023-04-04T21:59:11.796Z,14.95
2023-04-04T22:01:40.832Z,15.07
2023-04-04T22:04:09.385Z,15.57
2023-04-04T22:06:37.776Z,14.90
2023-04-04T22:09:06.905Z,15.80
2023-04-04T22:11:44.197Z,16.00
2023-04-04T22:14:18.152Z,16.27
2023-04-04T22:16:46.835Z,16.02
2023-04-04T22:19:15.396Z,15.68
2023-04-04T22:21:47.586Z,16.45
2023-04-04T22:24:17.991Z,16.52
2023-04-04T22:26:50.441Z,16.30
2023-04-04T22:29:18.849Z,17.13
2023-04-04T22:31:47.211Z,17.30
2023-04-04T22:34:15.756Z,18.30
2023-04-04T22:36:44.841Z,17.52
2023-04-04T22:39:15.843Z,16.67
2023-04-04T22:41:45.142Z,16.48
2023-04-04T22:44:14.856Z,17.45
2023-04-04T22:46:43.481Z,16.87
2023-04-04T22:49:13.315Z,17.63
2023-04-04T22:51:45.584Z,17.83
2023-04-04T22:54:16.390Z,17.65
2023-04-04T22:56:45.432Z,17.25
2023-04-04T22:59:15.394Z,16.33
2023-04-04T23:01:43.976Z,16.80
2023-04-04T23:04:12.594Z,15.77
2023-04-04T23:06:41.225Z,15.02
2023-04-04T23:09:09.563Z,15.27
2023-04-04T23:11:38.897Z,15.40
2023-04-04T23:14:09.648Z,16.35
2023-04-04T23:16:40.082Z,16.35
2023-04-04T23:19:08.795Z,15.85
2023-04-04T23:21:37.873Z,16.85
2023-04-04T23:24:08.123Z,17.95
2023-04-04T23:26:36.608Z,17.48
2023-04-04T23:29:05.705Z,15.57
2023-04-04T23:31:34.247Z,16.95
2023-04-04T23:34:03.942Z,17.23
2023-04-04T23:36:32.383Z,16.43
2023-04-04T23:39:00.778Z,18.70
2023-04-04T23:41:29.179Z,20.65
2023-04-04T23:43:57.524Z,20.13
2023-04-04T23:46:26.359Z,19.58
2023-04-04T23:48:54.727Z,19.05
2023-04-04T23:51:25.679Z,19.33
2023-04-04T23:53:54.019Z,18.65
2023-04-04T23:56:22.553Z,19.58
2023-04-04T23:58:51.223Z,17.80
